createdAt,value
2022-12-03T00:03:07.545Z,22.14
2022-12-03T00:08:09.585Z,21.48
2022-12-03T00:13:11.635Z,22.43
2022-12-03T00:18:13.501Z,22.33
2022-12-03T00:23:15.429Z,22.21
2022-12-03T00:28:17.305Z,23.56
2022-12-03T00:33:19.807Z,24.19
2022-12-03T00:38:21.812Z,22.63
2022-12-03T00:43:25.136Z,22.12
2022-12-03T00:48:27.577Z,21.94
2022-12-03T00:53:29.634Z,22.53
2022-12-03T00:58:31.584Z,22.48
2022-12-03T01:03:33.571Z,24.14
2022-12-03T01:08:35.567Z,25.67
2022-12-03T01:13:37.604Z,24.29
2022-12-03T01:18:39.671Z,25.93
2022-12-03T01:23:41.636Z,24.48
2022-12-03T01:28:43.692Z,26.24
2022-12-03T01:33:45.625Z,25.40
2022-12-03T01:38:48.808Z,24.60
2022-12-03T01:43:52.033Z,23.82
2022-12-03T01:48:55.805Z,24.43
2022-12-03T01:53:58.626Z,23.79
2022-12-03T01:59:00.592Z,23.09
2022-12-03T02:04:02.567Z,22.81
2022-12-03T02:09:08.520Z,23.43
2022-12-03T02:14:18.152Z,22.43
2022-12-03T02:19:30.655Z,20.52
2022-12-03T02:24:51.254Z,19.63
2022-12-03T02:29:53.572Z,20.68
2022-12-03T02:34:55.919Z,20.27
2022-12-03T02:40:03.975Z,18.88
2022-12-03T02:45:21.086Z,18.54
2022-12-03T02:50:28.437Z,18.89
2022-12-03T02:55:36.862Z,19.15
2022-12-03T03:00:39.874Z,17.96
2022-12-03T03:05:42.152Z,17.70
2022-12-03T03:10:45.888Z,16.39
2022-12-03T03:15:48.746Z,15.66
2022-12-03T03:20:50.987Z,17.12
2022-12-03T03:26:09.522Z,17.35
2022-12-03T03:31:14.421Z,17.66
2022-12-03T03:36:17.041Z,16.77
2022-12-03T03:41:20.857Z,18.80
2022-12-03T03:46:23.459Z,17.42
2022-12-03T03:51:25.987Z,18.35
2022-12-03T03:56:28.199Z,18.83
2022-12-03T04:01:31.301Z,16.88
2022-12-03T04:06:33.251Z,17.09
2022-12-03T04:11:53.610Z,17.22
2022-12-03T04:16:55.600Z,17.46
2022-12-03T04:22:16.394Z,18.98
2022-12-03T04:27:36.566Z,19.27
2022-12-03T04:32:56.883Z,19.03
2022-12-03T04:37:58.914Z,18.69
2022-12-03T04:43:00.821Z,17.98
2022-12-03T04:48:02.726Z,18.64
2022-12-03T04:53:04.800Z,19.16
2022-12-03T04:58:06.871Z,17.22
2022-12-03T05:03:08.861Z,16.88
2022-12-03T05:08:10.824Z,16.81
2022-12-03T05:13:12.791Z,16.12
2022-12-03T05:18:14.723Z,16.90
2022-12-03T05:23:16.968Z,15.55
2022-12-03T05:28:20.504Z,18.07
2022-12-03T05:33:22.497Z,18.56
2022-12-03T05:38:24.427Z,19.66
2022-12-03T05:43:26.526Z,19.09
2022-12-03T05:48:28.436Z,18.34
2022-12-03T05:53:30.576Z,19.22
2022-12-03T05:58:32.679Z,18.08
2022-12-03T06:03:34.655Z,17.78
2022-12-03T06:08:36.677Z,17.68
2022-12-03T06:13:38.684Z,18.86
2022-12-03T06:18:40.740Z,20.05
2022-12-03T06:23:44.944Z,21.28
2022-12-03T06:28:49.123Z,19.31
2022-12-03T06:33:51.038Z,20.66
2022-12-03T06:38:53.356Z,21.02
2022-12-03T06:43:55.324Z,20.88
2022-12-03T06:48:57.665Z,20.22
2022-12-03T06:53:59.891Z,20.30
2022-12-03T06:59:02.117Z,19.79
2022-12-03T07:04:04.183Z,20.54
2022-12-03T07:09:06.170Z,20.71
2022-12-03T07:14:12.016Z,20.80
2022-12-03T07:19:14.511Z,23.25
2022-12-03T07:24:16.832Z,24.40
2022-12-03T07:29:18.898Z,25.97
2022-12-03T07:34:21.919Z,26.07
2022-12-03T07:39:23.900Z,25.43
2022-12-03T07:44:26.475Z,27.00
2022-12-03T07:49:28.506Z,27.04
2022-12-03T07:54:30.867Z,27.38
2022-12-03T07:59:33.037Z,26.14
2022-12-03T08:04:34.938Z,25.76
2022-12-03T08:09:39.614Z,25.72
2022-12-03T08:14:41.750Z,25.70
2022-12-03T08:19:47.002Z,25.00
2022-12-03T08:24:48.940Z,24.05
2022-12-03T08:30:00.625Z,26.40
2022-12-03T08:35:02.638Z,24.42
2022-12-03T08:40:21.955Z,24.61
2022-12-03T08:45:35.115Z,24.34
2022-12-03T08:50:40.476Z,24.62
2022-12-03T08:55:46.883Z,22.03
2022-12-03T09:01:11.111Z,22.17
2022-12-03T09:06:13.080Z,19.89
2022-12-03T09:11:15.572Z,20.83
2022-12-03T09:16:17.528Z,22.57
2022-12-03T09:21:19.740Z,22.63
2022-12-03T09:26:21.628Z,23.98
2022-12-03T09:31:25.433Z,23.59
2022-12-03T09:36:27.474Z,22.08
2022-12-03T09:41:29.603Z,23.30
2022-12-03T09:46:31.761Z,21.69
2022-12-03T09:51:36.191Z,20.75
2022-12-03T09:56:38.351Z,20.69
2022-12-03T10:01:40.592Z,20.03
2022-12-03T10:06:46.006Z,17.98
2022-12-03T10:11:48.428Z,19.27
2022-12-03T10:16:50.872Z,19.97
2022-12-03T10:21:53.170Z,17.73
2022-12-03T10:26:57.796Z,16.85
2022-12-03T10:32:02.343Z,17.41
2022-12-03T10:37:21.380Z,17.67
2022-12-03T10:42:25.353Z,18.16
2022-12-03T10:47:27.471Z,18.01
2022-12-03T10:52:29.969Z,18.83
2022-12-03T10:57:32.411Z,20.15
2022-12-03T11:02:34.336Z,21.53
2022-12-03T11:07:39.021Z,20.11
2022-12-03T11:12:41.339Z,19.57
2022-12-03T11:17:49.206Z,19.02
2022-12-03T11:22:55.570Z,18.69
2022-12-03T11:28:15.760Z,18.35
2022-12-03T11:33:24.671Z,17.79
2022-12-03T11:38:41.597Z,16.53
2022-12-03T11:43:56.305Z,15.74
2022-12-03T11:48:59.962Z,15.55
2022-12-03T11:54:02.007Z,16.72
2022-12-03T11:59:12.277Z,17.38
2022-12-03T12:04:46.782Z,16.98
2022-12-03T12:09:54.914Z,18.53
2022-12-03T12:14:58.348Z,20.95
2022-12-03T12:20:45.292Z,20.75
2022-12-03T12:25:54.231Z,21.19
2022-12-03T12:30:56.512Z,21.48
2022-12-03T12:35:58.570Z,22.29
2022-12-03T12:41:06.728Z,21.53
2022-12-03T12:51:36.029Z,23.21
2022-12-03T12:56:38.946Z,21.97
2022-12-03T13:01:43.279Z,21.68
2022-12-03T13:06:47.707Z,20.80
2022-12-03T13:11:54.548Z,21.94
2022-12-03T13:16:59.011Z,21.88
2022-12-03T13:22:10.120Z,21.97
2022-12-03T13:27:17.932Z,22.70
2022-12-03T13:32:22.769Z,22.08
2022-12-03T13:37:27.806Z,21.37
2022-12-03T13:42:39.311Z,22.38
2022-12-03T13:47:49.529Z,22.35
2022-12-03T13:52:53.007Z,21.85
2022-12-03T13:57:55.501Z,22.02
2022-12-03T14:02:58.815Z,23.23
2022-12-03T14:15:38.191Z,26.20
2022-12-03T14:20:40.076Z,25.99
2022-12-03T14:25:43.963Z,26.43
2022-12-03T14:30:45.908Z,25.91
2022-12-03T14:35:47.925Z,26.20
2022-12-03T14:40:49.901Z,26.65
2022-12-03T14:45:51.907Z,26.46
2022-12-03T14:50:56.265Z,28.00
2022-12-03T14:55:59.444Z,27.71
2022-12-03T15:01:01.386Z,28.27
2022-12-03T15:06:03.688Z,29.93
2022-12-03T15:11:05.809Z,29.09
2022-12-03T15:16:08.558Z,29.36
2022-12-03T15:21:10.485Z,29.00
2022-12-03T15:26:12.464Z,29.72
2022-12-03T15:31:14.453Z,29.06
2022-12-03T15:36:16.760Z,29.50
2022-12-03T15:41:21.879Z,29.52
2022-12-03T15:46:24.068Z,29.63
2022-12-03T15:51:26.096Z,30.09
2022-12-03T15:56:28.074Z,29.65
2022-12-03T16:01:30.313Z,30.45
2022-12-03T16:06:32.592Z,31.11
2022-12-03T16:11:34.484Z,29.99
2022-12-03T16:16:36.507Z,31.21
2022-12-03T16:21:39.077Z,31.10
2022-12-03T16:26:40.992Z,31.13
2022-12-03T16:31:58.447Z,30.28
2022-12-03T16:37:00.423Z,29.73
2022-12-03T16:42:04.033Z,29.13
2022-12-03T16:47:06.133Z,29.52
2022-12-03T16:52:08.119Z,29.27
2022-12-03T16:57:11.352Z,28.48
2022-12-03T17:02:13.847Z,29.05
2022-12-03T17:07:15.913Z,29.30
2022-12-03T17:12:17.835Z,29.42
2022-12-03T17:17:19.752Z,29.01
2022-12-03T17:22:21.904Z,29.95
2022-12-03T17:27:26.009Z,30.04
2022-12-03T17:32:28.030Z,29.43
2022-12-03T17:37:29.962Z,28.08
2022-12-03T17:42:32.001Z,27.88
2022-12-03T17:47:34.267Z,28.50
2022-12-03T17:52:36.321Z,29.56
2022-12-03T17:57:38.368Z,28.50
2022-12-03T18:02:40.542Z,30.27
2022-12-03T18:07:42.504Z,30.20
2022-12-03T18:12:46.095Z,30.01
2022-12-03T18:17:48.098Z,30.07
2022-12-03T18:22:50.259Z,31.42
2022-12-03T18:27:52.265Z,29.61
2022-12-03T18:32:54.499Z,28.23
2022-12-03T18:37:56.440Z,29.12
2022-12-03T18:42:58.523Z,28.84
2022-12-03T18:48:00.636Z,28.06
2022-12-03T18:53:02.570Z,28.92
2022-12-03T18:58:04.704Z,30.10
2022-12-03T19:03:08.322Z,30.17
2022-12-03T19:08:14.845Z,31.09
2022-12-03T19:13:17.078Z,30.52
2022-12-03T19:18:19.092Z,32.38
2022-12-03T19:23:21.088Z,35.27
2022-12-03T19:28:23.280Z,34.75
2022-12-03T19:33:28.623Z,34.26
2022-12-03T19:38:31.188Z,35.76
2022-12-03T19:43:35.192Z,38.80
2022-12-03T19:48:39.225Z,35.47
2022-12-03T19:53:41.711Z,37.93
2022-12-03T19:58:45.367Z,37.54
2022-12-03T20:03:48.663Z,36.39
2022-12-03T20:08:55.035Z,36.63
2022-12-03T20:13:59.727Z,38.30
2022-12-03T20:19:05.088Z,36.59
2022-12-03T20:24:07.951Z,37.79
2022-12-03T20:29:10.267Z,39.14
2022-12-03T20:34:12.361Z,38.66
2022-12-03T20:39:14.368Z,39.25
2022-12-03T20:44:16.342Z,40.95
2022-12-03T20:49:18.471Z,39.46
2022-12-03T20:54:20.682Z,41.29
2022-12-03T20:59:22.636Z,38.89
2022-12-03T21:04:24.632Z,41.11
2022-12-03T21:09:26.672Z,42.65
2022-12-03T21:14:28.800Z,43.23
2022-12-03T21:19:30.883Z,43.90
2022-12-03T21:24:33.405Z,45.51
2022-12-03T21:29:35.494Z,43.68
2022-12-03T21:34:37.620Z,42.98
2022-12-03T21:39:39.623Z,44.62
2022-12-03T21:44:41.702Z,45.97
2022-12-03T21:49:43.830Z,43.75
2022-12-03T21:54:45.995Z,45.57
2022-12-03T21:59:47.963Z,47.04
2022-12-03T22:04:50.808Z,45.38
2022-12-03T22:09:53.433Z,45.55
2022-12-03T22:14:57.215Z,47.24
2022-12-03T22:19:59.264Z,46.82
2022-12-03T22:25:01.263Z,44.15
2022-12-03T22:30:04.400Z,44.99
2022-12-03T22:35:06.703Z,47.28
2022-12-03T22:40:08.946Z,48.57
2022-12-03T22:45:11.186Z,45.92
2022-12-03T22:50:13.404Z,48.41
2022-12-03T22:55:15.513Z,50.25
2022-12-03T23:00:28.959Z,48.82
2022-12-03T23:05:37.146Z,45.16
2022-12-03T23:10:41.781Z,44.56
2022-12-03T23:15:49.175Z,42.83
2022-12-03T23:20:53.468Z,43.43
2022-12-03T23:25:59.429Z,42.13
2022-12-03T23:31:01.873Z,40.90
2022-12-03T23:36:06.278Z,42.78
2022-12-03T23:41:11.417Z,45.55
2022-12-03T23:46:16.056Z,47.69
2022-12-03T23:51:21.176Z,46.33
2022-12-03T23:56:29.346Z,50.24
